createdAt,value
2023-04-29T00:01:40.960Z,99.90
2023-04-29T00:04:09.317Z,99.90
2023-04-29T00:06:39.563Z,99.90
2023-04-29T00:09:06.922Z,99.90
2023-04-29T00:11:34.462Z,99.90
2023-04-29T00:14:01.931Z,99.90
2023-04-29T00:16:29.617Z,99.90
2023-04-29T00:18:57.598Z,99.90
2023-04-29T00:21:25.397Z,99.90
2023-04-29T00:23:53.147Z,99.90
2023-04-29T00:26:20.707Z,99.90
2023-04-29T00:28:49.101Z,99.90
2023-04-29T00:31:16.530Z,99.90
2023-04-29T00:33:45.153Z,99.90
2023-04-29T00:36:13.299Z,99.90
2023-04-29T00:38:40.664Z,99.90
2023-04-29T00:41:08.069Z,99.90
2023-04-29T00:43:35.520Z,99.90
2023-04-29T00:46:03.938Z,99.90
2023-04-29T00:48:33.053Z,99.90
2023-04-29T00:51:00.698Z,99.90
2023-04-29T00:53:28.330Z,99.90
2023-04-29T00:55:56.400Z,99.90
2023-04-29T00:58:30.250Z,99.90
2023-04-29T01:00:57.815Z,99.90
2023-04-29T01:03:25.389Z,99.90
2023-04-29T01:06:20.126Z,99.90
2023-04-29T01:09:05.954Z,99.90
2023-04-29T01:11:46.418Z,99.90
2023-04-29T01:14:13.978Z,99.90
2023-04-29T01:16:47.807Z,99.90
2023-04-29T01:19:44.152Z,99.90
2023-04-29T01:22:12.734Z,99.90
2023-04-29T01:24:40.508Z,99.90
2023-04-29T01:27:24.632Z,99.90
2023-04-29T01:30:01.565Z,99.90
2023-04-29T01:32:37.736Z,99.90
2023-04-29T01:35:25.126Z,99.90
2023-04-29T01:37:55.417Z,99.90
2023-04-29T01:40:47.836Z,99.90
2023-04-29T01:43:24.955Z,99.90
2023-04-29T01:45:56.546Z,99.90
2023-04-29T01:48:24.949Z,99.90
2023-04-29T01:50:52.383Z,99.90
2023-04-29T01:53:19.766Z,99.90
2023-04-29T01:55:47.559Z,99.90
2023-04-29T01:58:24.251Z,99.90
2023-04-29T02:01:11.884Z,99.90
2023-04-29T02:03:39.974Z,99.90
2023-04-29T02:06:10.272Z,99.90
2023-04-29T02:08:37.950Z,99.90
2023-04-29T02:11:05.909Z,99.90
2023-04-29T02:13:41.018Z,99.90
2023-04-29T02:16:09.852Z,99.90
2023-04-29T02:18:40.359Z,99.90
2023-04-29T02:21:08.076Z,99.90
2023-04-29T02:23:36.296Z,99.90
2023-04-29T02:26:06.373Z,99.90
2023-04-29T02:28:35.067Z,99.90
2023-04-29T02:31:02.692Z,99.90
2023-04-29T02:33:31.494Z,99.90
2023-04-29T02:35:59.807Z,99.90
2023-04-29T02:38:27.319Z,99.90
2023-04-29T02:40:54.677Z,99.90
2023-04-29T02:43:22.619Z,99.90
2023-04-29T02:45:50.071Z,99.90
2023-04-29T02:48:18.087Z,99.90
2023-04-29T02:50:45.519Z,99.90
2023-04-29T02:53:13.240Z,99.90
2023-04-29T02:55:41.902Z,99.90
2023-04-29T02:58:10.778Z,99.90
2023-04-29T03:00:38.203Z,99.90
2023-04-29T03:03:05.866Z,99.90
2023-04-29T03:05:34.908Z,99.90
2023-04-29T03:08:04.742Z,99.90
2023-04-29T03:10:32.442Z,99.90
2023-04-29T03:12:59.954Z,99.90
2023-04-29T03:15:27.384Z,99.90
2023-04-29T03:17:54.919Z,99.90
2023-04-29T03:20:22.425Z,99.90
2023-04-29T03:22:49.894Z,99.90
2023-04-29T03:25:17.404Z,99.90
2023-04-29T03:27:44.976Z,99.90
2023-04-29T03:30:12.584Z,99.90
2023-04-29T03:32:47.028Z,99.90
2023-04-29T03:35:15.948Z,99.90
2023-04-29T03:37:55.126Z,99.90
2023-04-29T03:40:25.924Z,99.90
2023-04-29T03:42:53.629Z,99.90
2023-04-29T03:45:21.262Z,99.90
2023-04-29T03:47:49.300Z,99.90
2023-04-29T03:50:16.793Z,99.90
2023-04-29T03:52:44.491Z,99.90
2023-04-29T03:55:15.374Z,99.90
2023-04-29T03:57:44.169Z,99.90
2023-04-29T04:00:13.133Z,99.90
2023-04-29T04:02:51.346Z,99.90
2023-04-29T04:05:22.650Z,99.90
2023-04-29T04:07:55.245Z,99.90
2023-04-29T04:10:47.341Z,99.90
2023-04-29T04:13:32.010Z,99.90
2023-04-29T04:15:59.707Z,99.90
2023-04-29T04:18:27.228Z,99.90
2023-04-29T04:20:54.653Z,99.90
2023-04-29T04:23:22.019Z,99.90
2023-04-29T04:25:49.894Z,99.90
2023-04-29T04:28:37.178Z,99.90
2023-04-29T04:31:14.800Z,99.90
2023-04-29T04:33:42.506Z,99.90
2023-04-29T04:36:10.024Z,99.90
2023-04-29T04:38:37.601Z,99.90
2023-04-29T04:41:09.435Z,99.90
2023-04-29T04:43:39.903Z,99.90
2023-04-29T04:46:15.098Z,99.90
2023-04-29T04:48:53.028Z,99.90
2023-04-29T04:51:21.288Z,99.90
2023-04-29T04:53:48.819Z,99.90
2023-04-29T04:56:21.000Z,99.90
2023-04-29T04:58:48.415Z,99.90
2023-04-29T05:01:15.953Z,99.90
2023-04-29T05:03:44.064Z,99.90
2023-04-29T05:06:11.894Z,99.90
2023-04-29T05:08:41.456Z,99.90
2023-04-29T05:11:20.318Z,99.90
2023-04-29T05:14:01.167Z,99.90
2023-04-29T05:16:28.609Z,99.90
2023-04-29T05:18:56.074Z,99.90
2023-04-29T05:21:27.083Z,99.90
2023-04-29T05:23:54.526Z,99.90
2023-04-29T05:26:22.030Z,99.90
2023-04-29T05:28:50.901Z,99.90
2023-04-29T05:31:19.821Z,99.90
2023-04-29T05:33:47.498Z,99.90
2023-04-29T05:36:14.912Z,99.90
2023-04-29T05:38:45.253Z,99.90
2023-04-29T05:41:14.212Z,99.90
2023-04-29T05:43:41.652Z,99.90
2023-04-29T05:46:09.257Z,99.90
2023-04-29T05:48:36.717Z,99.90
2023-04-29T05:51:04.184Z,99.90
2023-04-29T05:53:33.646Z,99.90
2023-04-29T05:56:04.845Z,99.90
2023-04-29T05:58:32.308Z,99.90
2023-04-29T06:01:00.295Z,99.90
2023-04-29T06:03:28.496Z,99.90
2023-04-29T06:06:12.951Z,99.90
2023-04-29T06:08:47.528Z,99.90
2023-04-29T06:11:20.255Z,99.90
2023-04-29T06:13:47.699Z,99.90
2023-04-29T06:16:15.250Z,99.90
2023-04-29T06:18:42.652Z,99.90
2023-04-29T06:21:10.039Z,99.90
2023-04-29T06:23:37.525Z,99.90
2023-04-29T06:26:11.116Z,99.90
2023-04-29T06:28:38.621Z,99.90
2023-04-29T06:31:06.110Z,99.90
2023-04-29T06:33:34.208Z,99.90
2023-04-29T06:36:01.700Z,99.90
2023-04-29T06:38:51.830Z,99.90
2023-04-29T06:41:50.504Z,99.90
2023-04-29T06:44:39.656Z,99.90
2023-04-29T06:47:25.632Z,99.90
2023-04-29T06:50:06.648Z,99.90
2023-04-29T06:52:34.504Z,99.90
2023-04-29T06:55:02.026Z,99.90
2023-04-29T06:57:29.427Z,99.90
2023-04-29T06:59:56.853Z,99.90
2023-04-29T07:02:25.628Z,99.90
2023-04-29T07:04:53.221Z,99.90
2023-04-29T07:07:20.808Z,99.90
2023-04-29T07:09:52.138Z,99.90
2023-04-29T07:12:21.167Z,99.90
2023-04-29T07:14:48.522Z,99.90
2023-04-29T07:17:16.042Z,99.90
2023-04-29T07:19:43.859Z,99.90
2023-04-29T07:22:11.685Z,99.90
2023-04-29T07:24:39.107Z,99.90
2023-04-29T07:27:07.441Z,99.90
2023-04-29T07:29:37.042Z,99.90
2023-04-29T07:32:04.947Z,99.90
2023-04-29T07:34:32.300Z,99.90
2023-04-29T07:36:59.965Z,99.90
2023-04-29T07:39:28.999Z,99.90
2023-04-29T07:41:57.888Z,99.90
2023-04-29T07:44:25.377Z,99.90
2023-04-29T07:46:52.844Z,99.90
2023-04-29T07:49:20.208Z,99.90
2023-04-29T07:51:47.577Z,99.90
2023-04-29T07:54:16.520Z,99.90
2023-04-29T07:56:43.920Z,99.90
2023-04-29T07:59:11.348Z,99.90
2023-04-29T08:01:41.120Z,99.90
2023-04-29T08:04:09.158Z,99.90
2023-04-29T08:06:46.752Z,99.90
2023-04-29T08:09:14.200Z,99.90
2023-04-29T08:11:43.447Z,99.90
2023-04-29T08:14:13.323Z,99.90
2023-04-29T08:16:40.871Z,99.90
2023-04-29T08:19:08.313Z,99.90
2023-04-29T08:21:35.708Z,99.90
2023-04-29T08:24:03.129Z,99.90
2023-04-29T08:26:30.556Z,99.90
2023-04-29T08:28:57.924Z,99.90
2023-04-29T08:31:26.045Z,99.90
2023-04-29T08:33:53.636Z,99.90
2023-04-29T08:36:21.331Z,99.90
2023-04-29T08:38:49.011Z,99.90
2023-04-29T08:41:16.968Z,99.90
2023-04-29T08:43:44.567Z,99.90
2023-04-29T08:46:12.975Z,99.90
2023-04-29T08:48:44.186Z,99.90
2023-04-29T08:51:16.989Z,99.90
2023-04-29T08:53:44.641Z,99.90
2023-04-29T08:56:22.123Z,99.90
2023-04-29T08:58:54.787Z,99.90
2023-04-29T09:01:24.254Z,99.90
2023-04-29T09:04:03.842Z,99.90
2023-04-29T09:06:33.401Z,99.90
2023-04-29T09:09:03.053Z,99.90
2023-04-29T09:11:31.116Z,99.90
2023-04-29T09:14:02.398Z,99.10
2023-04-29T09:16:29.965Z,98.90
2023-04-29T09:18:57.622Z,98.30
2023-04-29T09:21:27.689Z,98.10
2023-04-29T09:24:03.407Z,99.40
2023-04-29T09:26:43.604Z,99.90
2023-04-29T09:29:18.325Z,99.90
2023-04-29T09:31:46.606Z,99.90
2023-04-29T09:34:16.971Z,99.90
2023-04-29T09:36:48.483Z,99.80
2023-04-29T09:39:20.899Z,99.60
2023-04-29T09:41:54.596Z,99.30
2023-04-29T09:44:35.919Z,99.30
2023-04-29T09:47:05.632Z,98.10
2023-04-29T09:49:39.790Z,96.70
2023-04-29T09:52:10.267Z,97.10
2023-04-29T09:54:39.767Z,96.90
2023-04-29T09:57:09.031Z,95.00
2023-04-29T09:59:38.725Z,94.20
2023-04-29T10:02:17.829Z,93.10
2023-04-29T10:04:47.279Z,93.90
2023-04-29T10:07:16.807Z,95.20
2023-04-29T10:09:48.984Z,96.40
2023-04-29T10:12:17.901Z,95.90
2023-04-29T10:15:03.819Z,94.90
2023-04-29T10:17:45.169Z,94.00
2023-04-29T10:20:16.462Z,93.60
2023-04-29T10:22:48.990Z,92.10
2023-04-29T10:25:18.783Z,92.00
2023-04-29T10:27:47.401Z,91.90
2023-04-29T10:30:16.628Z,90.60
2023-04-29T10:32:51.120Z,90.30
2023-04-29T10:35:25.855Z,90.90
2023-04-29T10:37:54.247Z,90.50
2023-04-29T10:40:54.496Z,90.20
2023-04-29T10:43:26.430Z,89.30
2023-04-29T10:46:23.603Z,89.30
2023-04-29T10:48:56.385Z,90.40
2023-04-29T10:51:32.733Z,91.50
2023-04-29T10:54:03.272Z,91.80
2023-04-29T10:56:42.186Z,91.70
2023-04-29T10:59:17.363Z,91.90
2023-04-29T11:01:44.742Z,91.90
2023-04-29T11:04:13.535Z,92.20
2023-04-29T11:06:44.587Z,93.40
2023-04-29T11:09:37.214Z,94.00
2023-04-29T11:12:05.925Z,94.90
2023-04-29T11:14:37.459Z,95.60
2023-04-29T11:17:13.020Z,95.70
2023-04-29T11:19:50.058Z,96.40
2023-04-29T11:22:24.186Z,96.90
2023-04-29T11:24:57.655Z,97.10
2023-04-29T11:27:30.065Z,97.30
2023-04-29T11:29:58.956Z,97.10
2023-04-29T11:32:34.235Z,97.10
2023-04-29T11:35:12.715Z,96.60
2023-04-29T11:37:41.095Z,97.40
2023-04-29T11:40:09.480Z,97.70
2023-04-29T11:42:42.833Z,98.30
2023-04-29T11:45:10.710Z,98.70
2023-04-29T11:47:42.670Z,98.20
2023-04-29T11:50:10.498Z,98.30
2023-04-29T11:52:39.418Z,98.40
2023-04-29T11:55:09.317Z,97.90
2023-04-29T11:57:37.034Z,97.70
2023-04-29T12:00:05.735Z,98.00
2023-04-29T12:02:35.950Z,98.80
2023-04-29T12:05:08.764Z,98.90
2023-04-29T12:07:37.178Z,99.10
2023-04-29T12:10:11.818Z,98.40
2023-04-29T12:12:41.374Z,98.60
2023-04-29T12:15:12.861Z,99.20
2023-04-29T12:17:41.188Z,99.40
2023-04-29T12:20:10.621Z,99.20
2023-04-29T12:22:38.341Z,98.90
2023-04-29T12:25:07.306Z,99.00
2023-04-29T12:27:41.482Z,99.60
2023-04-29T12:30:10.499Z,99.90
2023-04-29T12:32:38.865Z,99.90
2023-04-29T12:35:07.363Z,99.90
2023-04-29T12:37:35.444Z,99.90
2023-04-29T12:40:03.719Z,99.90
2023-04-29T12:42:36.785Z,99.90
2023-04-29T12:45:06.647Z,99.90
2023-04-29T12:47:37.204Z,99.90
2023-04-29T12:50:07.294Z,99.90
2023-04-29T12:52:36.728Z,99.90
2023-04-29T12:55:05.036Z,99.90
2023-04-29T12:57:32.611Z,99.90
2023-04-29T13:00:00.145Z,99.90
2023-04-29T13:02:28.373Z,99.90
2023-04-29T13:04:56.224Z,99.90
2023-04-29T13:07:24.006Z,99.90
2023-04-29T13:09:53.929Z,99.90
2023-04-29T13:12:22.100Z,99.90
2023-04-29T13:14:49.503Z,99.90
2023-04-29T13:17:17.027Z,99.90
2023-04-29T13:19:51.818Z,99.90
2023-04-29T13:22:19.789Z,99.90
2023-04-29T13:24:47.523Z,99.90
2023-04-29T13:27:14.997Z,99.90
2023-04-29T13:29:42.361Z,99.90
2023-04-29T13:32:09.762Z,99.90
2023-04-29T13:34:37.312Z,99.90
2023-04-29T13:37:04.743Z,99.90
2023-04-29T13:39:32.121Z,99.90
2023-04-29T13:41:59.864Z,99.90
2023-04-29T13:44:33.296Z,99.80
2023-04-29T13:47:06.323Z,99.90
2023-04-29T13:50:14.466Z,99.90
2023-04-29T13:55:26.341Z,99.90
2023-04-29T14:00:54.574Z,99.90
2023-04-29T14:03:09.688Z,99.90
2023-04-29T14:05:39.875Z,99.90
2023-04-29T14:08:08.783Z,99.90
2023-04-29T14:10:38.587Z,99.90
2023-04-29T14:13:07.911Z,99.90
2023-04-29T14:15:37.576Z,99.90
2023-04-29T14:18:10.449Z,99.90
2023-04-29T14:20:40.403Z,99.90
2023-04-29T14:23:09.372Z,99.90
2023-04-29T14:25:39.328Z,99.90
2023-04-29T14:28:09.551Z,99.90
2023-04-29T14:30:38.500Z,99.90
2023-04-29T14:33:08.183Z,99.90
2023-04-29T14:35:37.460Z,99.90
2023-04-29T14:38:06.160Z,99.90
2023-04-29T14:40:34.218Z,99.90
2023-04-29T14:43:04.944Z,99.90
2023-04-29T14:45:34.935Z,99.90
2023-04-29T14:48:04.927Z,99.90
2023-04-29T14:50:34.715Z,99.90
2023-04-29T14:53:03.134Z,99.90
2023-04-29T14:55:32.740Z,99.90
2023-04-29T14:58:05.657Z,99.90
2023-04-29T15:00:35.517Z,99.90
2023-04-29T15:03:05.685Z,99.90
2023-04-29T15:05:35.766Z,99.90
2023-04-29T15:08:05.718Z,99.90
2023-04-29T15:10:34.434Z,99.90
2023-04-29T15:13:04.179Z,99.90
2023-04-29T15:15:32.403Z,99.90
2023-04-29T15:18:02.340Z,99.90
2023-04-29T15:20:31.276Z,99.90
2023-04-29T15:23:01.215Z,99.90
2023-04-29T15:25:30.218Z,99.90
2023-04-29T15:28:00.132Z,99.90
2023-04-29T15:30:29.152Z,99.90
2023-04-29T15:32:58.034Z,99.90
2023-04-29T15:35:28.839Z,99.90
2023-04-29T15:38:00.139Z,99.90
2023-04-29T15:40:29.084Z,99.90
2023-04-29T15:43:00.877Z,99.90
2023-04-29T15:45:31.689Z,99.90
2023-04-29T15:48:01.002Z,99.90
2023-04-29T15:50:29.963Z,99.90
2023-04-29T15:53:00.848Z,99.90
2023-04-29T15:55:30.746Z,99.90
2023-04-29T15:58:00.499Z,99.90
2023-04-29T16:00:29.660Z,99.90
2023-04-29T16:02:59.460Z,99.90
2023-04-29T16:05:29.773Z,99.90
2023-04-29T16:07:59.292Z,99.90
2023-04-29T16:10:29.294Z,99.90
2023-04-29T16:13:00.460Z,99.90
2023-04-29T16:15:31.936Z,99.90
2023-04-29T16:18:02.136Z,99.90
2023-04-29T16:20:31.769Z,99.90
2023-04-29T16:22:59.936Z,99.90
2023-04-29T16:25:28.929Z,99.90
2023-04-29T16:27:58.763Z,99.90
2023-04-29T16:30:28.622Z,99.90
2023-04-29T16:32:58.819Z,99.90
2023-04-29T16:35:30.025Z,99.90
2023-04-29T16:37:59.012Z,99.90
2023-04-29T16:40:28.838Z,99.90
2023-04-29T16:42:59.171Z,99.90
2023-04-29T16:45:28.478Z,99.90
2023-04-29T16:47:57.676Z,99.90
2023-04-29T16:50:28.389Z,99.90
2023-04-29T16:52:57.380Z,99.90
2023-04-29T16:55:25.640Z,99.90
2023-04-29T16:57:56.327Z,99.90
2023-04-29T17:00:28.801Z,99.90
2023-04-29T17:02:59.776Z,99.90
2023-04-29T17:05:29.192Z,99.90
2023-04-29T17:07:58.141Z,99.90
2023-04-29T17:10:27.312Z,99.90
2023-04-29T17:12:55.127Z,99.90
2023-04-29T17:15:22.566Z,99.90
2023-04-29T17:17:51.793Z,99.90
2023-04-29T17:20:19.250Z,99.90
2023-04-29T17:22:46.615Z,99.90
2023-04-29T17:25:15.668Z,99.90
2023-04-29T17:27:47.082Z,99.90
2023-04-29T17:30:14.513Z,99.90
2023-04-29T17:32:44.281Z,99.90
2023-04-29T17:35:11.904Z,99.90
2023-04-29T17:37:39.299Z,99.90
2023-04-29T17:40:07.615Z,99.90
2023-04-29T17:42:35.205Z,99.90
2023-04-29T17:45:02.654Z,99.90
2023-04-29T17:47:30.050Z,99.90
2023-04-29T17:50:00.322Z,99.90
2023-04-29T17:52:29.366Z,99.90
2023-04-29T17:54:56.739Z,99.90
2023-04-29T17:57:24.149Z,99.90
2023-04-29T17:59:51.801Z,99.90
2023-04-29T18:02:19.587Z,99.90
2023-04-29T18:04:47.271Z,99.90
2023-04-29T18:07:14.956Z,99.90
2023-04-29T18:09:42.358Z,99.90
2023-04-29T18:12:09.754Z,99.90
2023-04-29T18:14:39.094Z,99.90
2023-04-29T18:17:06.556Z,99.90
2023-04-29T18:19:34.841Z,99.90
2023-04-29T18:22:02.791Z,99.90
2023-04-29T18:24:30.206Z,99.90
2023-04-29T18:26:58.003Z,99.90
2023-04-29T18:29:25.538Z,99.90
2023-04-29T18:31:54.764Z,99.90
2023-04-29T18:34:22.360Z,99.90
2023-04-29T18:36:49.769Z,99.90
2023-04-29T18:39:18.030Z,99.90
2023-04-29T18:41:45.482Z,99.90
2023-04-29T18:44:13.162Z,99.90
2023-04-29T18:46:41.052Z,99.90
2023-04-29T18:49:11.751Z,99.90
2023-04-29T18:51:40.489Z,99.90
2023-04-29T18:54:07.887Z,99.90
2023-04-29T18:56:37.126Z,99.90
2023-04-29T18:59:05.726Z,99.90
2023-04-29T19:01:33.193Z,99.90
2023-04-29T19:04:04.488Z,99.90
2023-04-29T19:06:32.639Z,99.90
2023-04-29T19:09:00.755Z,99.90
2023-04-29T19:11:28.209Z,99.90
2023-04-29T19:13:55.989Z,99.90
2023-04-29T19:16:24.468Z,99.90
2023-04-29T19:18:52.008Z,99.90
2023-04-29T19:21:20.202Z,99.90
2023-04-29T19:23:47.627Z,99.90
2023-04-29T19:26:15.028Z,99.90
2023-04-29T19:28:42.427Z,99.90
2023-04-29T19:31:11.624Z,99.90
2023-04-29T19:33:39.166Z,99.90
2023-04-29T19:36:08.360Z,99.90
2023-04-29T19:38:36.243Z,99.90
2023-04-29T19:41:03.753Z,99.90
2023-04-29T19:43:31.824Z,99.90
2023-04-29T19:45:59.747Z,99.90
2023-04-29T19:48:27.256Z,99.90
2023-04-29T19:50:54.650Z,99.90
2023-04-29T19:53:22.034Z,99.90
2023-04-29T19:55:51.690Z,99.90
2023-04-29T19:58:19.491Z,99.90
2023-04-29T20:00:47.058Z,99.90
2023-04-29T20:03:14.522Z,99.90
2023-04-29T20:05:42.025Z,99.90
2023-04-29T20:08:09.461Z,99.90
2023-04-29T20:10:36.954Z,99.90
2023-04-29T20:13:04.376Z,99.90
2023-04-29T20:15:32.200Z,99.90
2023-04-29T20:17:59.618Z,99.90
2023-04-29T20:20:27.259Z,99.90
2023-04-29T20:23:00.331Z,99.90
2023-04-29T20:25:28.516Z,99.90
2023-04-29T20:27:57.504Z,99.90
2023-04-29T20:30:27.790Z,99.90
2023-04-29T20:32:55.324Z,99.90
2023-04-29T20:35:22.779Z,99.90
2023-04-29T20:37:50.260Z,99.90
2023-04-29T20:40:17.670Z,99.90
2023-04-29T20:42:45.321Z,99.90
2023-04-29T20:45:13.374Z,99.90
2023-04-29T20:47:41.417Z,99.90
2023-04-29T20:50:09.227Z,99.90
2023-04-29T20:52:37.173Z,99.90
2023-04-29T20:55:04.913Z,99.90
2023-04-29T20:57:32.824Z,99.90
2023-04-29T21:00:00.299Z,99.90
2023-04-29T21:02:27.777Z,99.90
2023-04-29T21:04:55.357Z,99.90
2023-04-29T21:07:22.770Z,99.90
2023-04-29T21:09:50.500Z,99.90
2023-04-29T21:12:17.916Z,99.90
2023-04-29T21:14:45.435Z,99.90
2023-04-29T21:17:12.888Z,99.90
2023-04-29T21:19:40.288Z,99.90
2023-04-29T21:22:08.060Z,99.90
2023-04-29T21:24:35.435Z,99.90
2023-04-29T21:27:02.910Z,99.90
2023-04-29T21:29:30.459Z,99.90
2023-04-29T21:31:57.819Z,99.90
2023-04-29T21:34:25.209Z,99.90
2023-04-29T21:36:52.642Z,99.90
2023-04-29T21:39:20.034Z,99.90
2023-04-29T21:41:47.519Z,99.90
2023-04-29T21:44:15.212Z,99.90
2023-04-29T21:46:42.773Z,99.90
2023-04-29T21:49:10.380Z,99.90
2023-04-29T21:51:37.836Z,99.90
2023-04-29T21:54:08.425Z,99.90
2023-04-29T21:56:35.964Z,99.90
2023-04-29T21:59:03.549Z,99.90
2023-04-29T22:01:44.043Z,99.90
2023-04-29T22:04:11.669Z,99.90
2023-04-29T22:06:39.407Z,99.90
2023-04-29T22:09:07.300Z,99.90
2023-04-29T22:11:34.919Z,99.90
2023-04-29T22:14:02.310Z,99.90
2023-04-29T22:16:29.711Z,99.90
2023-04-29T22:18:57.847Z,99.90
2023-04-29T22:21:25.393Z,99.90
2023-04-29T22:23:52.798Z,99.90
2023-04-29T22:26:20.272Z,99.90
2023-04-29T22:28:47.741Z,99.90
2023-04-29T22:31:15.169Z,99.90
2023-04-29T22:33:42.604Z,99.90
2023-04-29T22:36:09.982Z,99.90
2023-04-29T22:38:37.945Z,99.90
2023-04-29T22:41:06.318Z,99.90
2023-04-29T22:43:33.715Z,99.90
2023-04-29T22:46:01.180Z,99.90
2023-04-29T22:48:28.722Z,99.90
2023-04-29T22:50:59.385Z,99.90
2023-04-29T22:53:27.056Z,99.90
2023-04-29T22:55:56.321Z,99.90
2023-04-29T22:58:25.387Z,99.90
2023-04-29T23:00:57.669Z,99.90
2023-04-29T23:03:25.379Z,99.90
2023-04-29T23:05:59.772Z,99.90
2023-04-29T23:08:27.726Z,99.90
2023-04-29T23:10:55.386Z,99.90
2023-04-29T23:13:22.808Z,99.90
2023-04-29T23:15:50.271Z,99.90
2023-04-29T23:18:17.718Z,99.90
2023-04-29T23:20:48.338Z,99.90
2023-04-29T23:23:15.860Z,99.90
2023-04-29T23:25:43.669Z,99.90
2023-04-29T23:28:11.430Z,99.90
2023-04-29T23:30:38.955Z,99.90
2023-04-29T23:33:06.515Z,99.90
2023-04-29T23:35:33.974Z,99.90
2023-04-29T23:38:01.388Z,99.90
2023-04-29T23:40:29.296Z,99.90
2023-04-29T23:42:57.278Z,99.90
2023-04-29T23:45:24.791Z,99.90
2023-04-29T23:47:52.198Z,99.90
2023-04-29T23:50:19.658Z,99.90
2023-04-29T23:52:47.049Z,99.90
2023-04-29T23:55:14.465Z,99.90
2023-04-29T23:57:41.915Z,99.90
